Time;durP1;ratioP1;P1;durP2;ratioP2;P2;SDS_P1;SDS_P2;PMS_P1;PMS_P2;Temp;Humidity;BMP_temperature;BMP_pressure;BME280_temperature;BME280_humidity;BME280_pressure;Samples;Min_cycle;Max_cycle;Signal;HPM_P1;HPM_P2
2021/11/12 00:03:19;;;;;;;14.55;7.72;;;;;;;3.61;100.00;99845.56;2578832;55;20165;-69
2021/11/12 00:14:06;;;;;;;9.68;5.78;;;;;;;3.63;100.00;99833.09;2578941;55;20131;-69
2021/11/12 00:16:35;;;;;;;10.03;6.20;;;;;;;3.62;100.00;99820.88;2578835;55;20129;-69
2021/11/12 00:19:04;;;;;;;11.05;7.03;;;;;;;3.60;100.00;99830.63;2578739;55;20480;-75
2021/11/12 00:21:32;;;;;;;9.50;5.68;;;;;;;3.62;100.00;99820.88;2578718;55;20205;-75
2021/11/12 00:23:59;;;;;;;11.55;6.32;;;;;;;3.60;100.00;99814.81;2578708;55;20102;-75
2021/11/12 00:26:27;;;;;;;10.13;5.82;;;;;;;3.60;100.00;99806.88;2578753;55;20123;-75
2021/11/12 00:28:57;;;;;;;8.75;5.03;;;;;;;3.58;100.00;99803.50;2573817;55;20131;-76
2021/11/12 00:31:33;;;;;;;8.15;5.00;;;;;;;3.57;100.00;99793.91;2578564;55;20121;-69
2021/11/12 00:34:32;;;;;;;12.70;5.37;;;;;;;3.58;100.00;99782.41;2579009;55;20113;-75
2021/11/12 00:37:06;;;;;;;8.82;4.20;;;;;;;3.54;100.00;99784.38;2578434;55;20507;-75
2021/11/12 00:39:38;;;;;;;8.65;4.25;;;;;;;3.48;100.00;99777.69;2578542;55;20113;-75
2021/11/12 00:42:11;;;;;;;11.32;4.90;;;;;;;3.48;100.00;99774.22;2578718;55;20113;-75
2021/11/12 00:44:43;;;;;;;7.65;4.47;;;;;;;3.44;100.00;99775.31;2578658;55;20139;-69
2021/11/12 00:47:21;;;;;;;9.43;5.00;;;;;;;3.40;100.00;99769.38;2578758;55;20132;-74
2021/11/12 00:50:06;;;;;;;12.48;5.10;;;;;;;3.39;100.00;99762.41;2578853;55;20116;-69
2021/11/12 00:53:40;;;;;;;9.88;5.75;;;;;;;3.37;100.00;99753.75;2578785;55;20519;-74
2021/11/12 00:55:35;;;;;;;9.82;4.93;;;;;;;3.38;100.00;99750.19;2578656;55;20152;-74
2021/11/12 00:58:02;;;;;;;8.90;5.05;;;;;;;3.43;100.00;99748.13;2579025;55;20102;-74
2021/11/12 01:00:30;;;;;;;10.50;5.68;;;;;;;3.47;100.00;99749.63;2578603;55;20109;-69
2021/11/12 01:02:59;;;;;;;11.02;6.00;;;;;;;3.42;100.00;99735.88;2578614;55;20112;-69
2021/11/12 01:05:30;;;;;;;9.18;5.72;;;;;;;3.47;100.00;99733.78;2578489;55;20138;-74
2021/11/12 01:07:59;;;;;;;9.35;5.25;;;;;;;3.50;100.00;99729.25;2578727;55;20126;-74
2021/11/12 01:10:28;;;;;;;9.43;4.72;;;;;;;3.45;100.00;99730.41;2578689;55;20129;-69
2021/11/12 01:12:57;;;;;;;9.38;5.57;;;;;;;3.43;100.00;99721.75;2578591;55;20777;-69
2021/11/12 01:15:26;;;;;;;12.40;6.12;;;;;;;3.42;100.00;99717.41;2578399;55;20112;-73
2021/11/12 01:17:54;;;;;;;12.75;7.68;;;;;;;3.42;100.00;99724.47;2578619;55;20126;-70
2021/11/12 01:20:23;;;;;;;14.48;8.13;;;;;;;3.42;100.00;99709.50;2578440;55;20127;-75
2021/11/12 01:22:51;;;;;;;16.08;9.93;;;;;;;3.41;100.00;99707.81;2578656;55;20119;-69
2021/11/12 01:25:22;;;;;;;14.00;8.68;;;;;;;3.43;100.00;99705.94;2578596;55;20109;-74
2021/11/12 01:27:50;;;;;;;17.90;8.68;;;;;;;3.46;100.00;99697.00;2573683;55;20640;-74
2021/11/12 01:30:19;;;;;;;12.63;8.23;;;;;;;3.48;100.00;99698.56;2578516;55;20161;-70
2021/11/12 01:32:48;;;;;;;16.05;9.00;;;;;;;3.50;100.00;99690.56;2578639;55;20615;-70
2021/11/12 01:35:18;;;;;;;13.88;7.12;;;;;;;3.52;100.00;99682.56;2578379;55;20499;-74
2021/11/12 01:37:48;;;;;;;12.13;7.60;;;;;;;3.54;100.00;99691.22;2578540;55;20642;-68
2021/11/12 01:40:21;;;;;;;18.40;8.35;;;;;;;3.54;100.00;99689.41;2578385;55;20109;-69
2021/11/12 01:43:00;;;;;;;14.87;8.18;;;;;;;3.58;100.00;99688.31;2578670;55;20117;-69
2021/11/12 01:45:36;;;;;;;12.18;6.07;;;;;;;3.59;100.00;99689.13;2578347;55;20667;-74
2021/11/12 01:48:17;;;;;;;14.27;7.10;;;;;;;3.60;100.00;99690.81;2578777;55;20646;-69
2021/11/12 01:50:48;;;;;;;13.38;6.78;;;;;;;3.64;100.00;99680.94;2578317;55;20113;-72
2021/11/12 01:53:27;;;;;;;11.75;6.35;;;;;;;3.65;100.00;99678.22;2578344;55;20125;-75
2021/11/12 01:58:53;;;;;;;16.62;7.15;;;;;;;3.65;100.00;99678.22;2578438;55;20655;-70
2021/11/12 02:01:23;;;;;;;13.85;7.03;;;;;;;3.68;100.00;99678.00;2578494;55;20104;-69
2021/11/12 02:03:53;;;;;;;11.90;6.45;;;;;;;3.69;100.00;99671.78;2578414;55;20114;-69
2021/11/12 02:06:22;;;;;;;14.00;7.05;;;;;;;3.73;100.00;99669.81;2578408;55;20117;-69
2021/11/12 02:08:53;;;;;;;10.75;4.65;;;;;;;3.74;100.00;99672.34;2578296;55;20118;-75
2021/11/12 02:11:22;;;;;;;10.27;4.93;;;;;;;3.74;100.00;99667.06;2578418;55;20117;-75
2021/11/12 02:13:50;;;;;;;7.85;4.53;;;;;;;3.75;100.00;99673.19;2578326;55;20785;-74
2021/11/12 02:16:22;;;;;;;9.85;5.00;;;;;;;3.76;100.00;99667.00;2578422;55;20117;-69
2021/11/12 02:18:51;;;;;;;9.52;5.30;;;;;;;3.76;100.00;99662.53;2578425;55;20108;-69
2021/11/12 02:21:26;;;;;;;6.55;4.18;;;;;;;3.78;100.00;99654.53;2578502;55;20640;-69
2021/11/12 02:24:01;;;;;;;7.85;4.62;;;;;;;3.76;100.00;99654.62;2578463;55;20132;-69
2021/11/12 02:26:33;;;;;;;7.10;4.10;;;;;;;3.78;100.00;99646.62;2578060;55;20174;-74
2021/11/12 02:29:04;;;;;;;10.30;6.12;;;;;;;3.81;100.00;99654.34;2578514;55;20132;-69
2021/11/12 02:31:33;;;;;;;9.30;3.93;;;;;;;3.80;100.00;99646.50;2578504;55;20128;-69
2021/11/12 02:34:06;;;;;;;6.25;3.83;;;;;;;3.79;100.00;99647.44;2578395;55;20582;-69
2021/11/12 02:36:35;;;;;;;5.57;3.90;;;;;;;3.78;100.00;99651.03;2578408;55;20117;-74
2021/11/12 02:39:07;;;;;;;12.27;5.68;;;;;;;3.74;100.00;99643.34;2573168;55;20132;-75
2021/11/12 02:41:35;;;;;;;6.45;3.50;;;;;;;3.73;100.00;99636.38;2578261;55;20110;-75
2021/11/12 02:44:04;;;;;;;7.40;3.45;;;;;;;3.71;100.00;99630.34;2578391;55;20127;-74
2021/11/12 02:46:32;;;;;;;9.07;3.17;;;;;;;3.72;100.00;99632.03;2573321;55;20850;-68
2021/11/12 02:49:01;;;;;;;9.65;3.83;;;;;;;3.69;100.00;99612.91;2578016;55;20112;-69
2021/11/12 02:51:33;;;;;;;4.87;3.10;;;;;;;3.72;100.00;99632.03;2578122;55;20121;-75
2021/11/12 02:54:04;;;;;;;8.20;3.15;;;;;;;3.71;100.00;99613.66;2578211;55;20131;-69
2021/11/12 02:56:33;;;;;;;5.90;2.97;;;;;;;3.68;100.00;99622.59;2578258;55;20608;-74
2021/11/12 02:59:04;;;;;;;6.60;3.72;;;;;;;3.71;100.00;99619.78;2578229;55;20118;-74
2021/11/12 03:01:34;;;;;;;5.47;2.75;;;;;;;3.66;100.00;99606.03;2578442;55;20112;-68
2021/11/12 03:04:02;;;;;;;7.15;2.42;;;;;;;3.62;100.00;99609.81;2579050;55;20649;-69
2021/11/12 03:06:30;;;;;;;8.40;4.00;;;;;;;3.67;100.00;99628.00;2578886;55;20105;-74
2021/11/12 03:09:02;;;;;;;7.05;2.95;;;;;;;3.63;100.00;99632.63;2578937;55;20117;-74
2021/11/12 03:11:31;;;;;;;8.13;4.82;;;;;;;3.60;100.00;99611.69;2579060;55;20113;-69
2021/11/12 03:14:00;;;;;;;7.85;3.17;;;;;;;3.54;100.00;99609.47;2573992;55;20117;-75
2021/11/12 03:16:28;;;;;;;8.93;4.10;;;;;;;3.60;100.00;99612.56;2579029;55;20120;-74
2021/11/12 03:18:57;;;;;;;9.43;3.35;;;;;;;3.63;100.00;99619.44;2578929;55;20700;-69
2021/11/12 03:21:26;;;;;;;7.78;3.87;;;;;;;3.65;100.00;99614.91;2579004;55;20119;-69
2021/11/12 03:23:57;;;;;;;6.53;3.87;;;;;;;3.65;100.00;99614.91;2578916;55;20128;-69
2021/11/12 03:26:33;;;;;;;;;;;;;;;3.80;100.00;99612.19;2579198;55;20615;-69
2021/11/12 04:02:09;;;;;;;11.43;4.00;;;;;;;4.13;100.00;99640.00;2578989;55;20109;-73
2021/11/12 04:04:52;;;;;;;6.28;2.40;;;;;;;4.12;100.00;99640.97;2579049;55;20145;-74
2021/11/12 04:07:37;;;;;;;10.27;3.30;;;;;;;4.07;100.00;99635.97;2578725;55;20117;-69
2021/11/12 04:18:31;;;;;;;5.18;2.50;;;;;;;3.93;100.00;99628.97;2578809;55;20117;-69
2021/11/12 04:40:47;;;;;;;;;;;;;;;3.99;100.00;99639.09;2569751;55;20121;-69
2021/11/12 05:03:09;;;;;;;7.60;2.85;;;;;;;3.90;100.00;99635.28;2578712;55;20128;-69
2021/11/12 05:11:34;;;;;;;6.95;3.67;;;;;;;3.94;100.00;99632.44;2578440;55;20113;-69
2021/11/12 05:25:26;;;;;;;5.93;2.10;;;;;;;3.90;100.00;99631.78;2578711;55;20139;-74
2021/11/12 05:44:45;;;;;;;5.85;2.00;;;;;;;3.66;100.00;99674.63;2578739;55;20639;-72
2021/11/12 05:50:06;;;;;;;6.18;1.98;;;;;;;3.56;100.00;99684.06;2573555;55;20531;-74
2021/11/12 05:55:19;;;;;;;6.75;2.37;;;;;;;3.51;100.00;99680.84;2578424;55;20129;-74
2021/11/12 05:57:49;;;;;;;4.68;2.22;;;;;;;3.52;100.00;99680.75;2578530;55;20507;-69
2021/11/12 06:00:19;;;;;;;11.32;3.17;;;;;;;3.50;100.00;99685.28;2578483;55;20109;-69
2021/11/12 06:02:47;;;;;;;4.00;2.35;;;;;;;3.47;100.00;99699.50;2573593;55;20109;-74
2021/11/12 06:05:17;;;;;;;4.12;1.92;;;;;;;3.53;100.00;99700.09;2578517;55;20116;-74
2021/11/12 06:07:47;;;;;;;7.00;2.70;;;;;;;3.51;100.00;99705.44;2578298;55;20543;-69
2021/11/12 06:10:17;;;;;;;4.95;2.12;;;;;;;3.54;100.00;99713.16;2578415;55;20578;-69
2021/11/12 06:12:45;;;;;;;5.22;2.45;;;;;;;3.56;100.00;99715.72;2578667;55;20634;-69
2021/11/12 06:15:14;;;;;;;5.57;2.28;;;;;;;3.55;100.00;99724.56;2578419;55;20635;-69
2021/11/12 06:17:43;;;;;;;6.47;2.17;;;;;;;3.47;100.00;99717.97;2578441;55;20405;-69
2021/11/12 06:20:12;;;;;;;3.97;1.90;;;;;;;3.44;100.00;99722.56;2578464;55;20121;-75
2021/11/12 06:22:40;;;;;;;4.25;1.92;;;;;;;3.41;100.00;99726.28;2578254;55;20499;-75
2021/11/12 06:25:08;;;;;;;6.18;2.10;;;;;;;3.40;100.00;99735.09;2578313;55;20581;-69
2021/11/12 06:27:36;;;;;;;5.62;2.30;;;;;;;3.36;100.00;99735.38;2578299;55;20151;-69
2021/11/12 06:30:05;;;;;;;4.37;2.10;;;;;;;3.36;100.00;99741.50;2578522;55;20124;-73
2021/11/12 06:32:34;;;;;;;6.15;3.10;;;;;;;3.36;100.00;99744.16;2578407;55;20109;-69
2021/11/12 06:35:02;;;;;;;10.50;3.15;;;;;;;3.36;100.00;99752.06;2578110;55;20122;-75
2021/11/12 06:37:30;;;;;;;7.82;2.40;;;;;;;3.38;100.00;99744.91;2578427;55;20128;-75
2021/11/12 06:39:58;;;;;;;6.15;3.12;;;;;;;3.37;100.00;99735.28;2579010;55;20643;-70
2021/11/12 06:42:29;;;;;;;7.93;3.53;;;;;;;3.49;100.00;99752.16;2579045;55;20127;-71
2021/11/12 06:50:39;;;;;;;9.68;3.60;;;;;;;4.03;100.00;99747.97;2579038;55;20105;-69
2021/11/12 06:53:07;;;;;;;4.35;2.15;;;;;;;4.12;100.00;99760.59;2579046;55;20164;-75
2021/11/12 06:55:35;;;;;;;3.70;1.92;;;;;;;4.14;100.00;99766.63;2579058;55;20109;-69
2021/11/12 06:58:02;;;;;;;4.12;1.55;;;;;;;4.08;100.00;99768.81;2579039;55;20166;-69
2021/11/12 07:00:30;;;;;;;2.40;1.10;;;;;;;4.07;100.00;99775.03;2579094;55;20153;-68
2021/11/12 07:03:00;;;;;;;3.28;1.25;;;;;;;4.06;100.00;99768.91;2579161;55;20124;-75
2021/11/12 07:05:28;;;;;;;7.22;1.45;;;;;;;4.04;100.00;99765.50;2573863;55;20525;-69
2021/11/12 07:07:56;;;;;;;3.60;1.62;;;;;;;4.07;100.00;99782.94;2578948;55;20140;-75
2021/11/12 07:10:24;;;;;;;4.47;2.05;;;;;;;4.07;100.00;99782.94;2579011;55;20556;-69
2021/11/12 07:12:51;;;;;;;5.55;1.70;;;;;;;4.04;100.00;99784.84;2579165;55;20657;-69
2021/11/12 07:15:20;;;;;;;3.62;1.65;;;;;;;4.00;100.00;99788.59;2578896;55;20105;-75
2021/11/12 07:17:48;;;;;;;4.22;1.92;;;;;;;4.03;100.00;99801.63;2579151;55;20109;-75
2021/11/12 07:20:17;;;;;;;4.68;1.83;;;;;;;4.06;100.00;99797.97;2573924;55;20607;-75
2021/11/12 07:22:47;;;;;;;2.50;1.45;;;;;;;4.04;100.00;99800.69;2579095;55;20686;-69
2021/11/12 07:25:14;;;;;;;3.92;1.80;;;;;;;4.10;100.00;99809.16;2579002;55;20135;-76
2021/11/12 07:27:42;;;;;;;2.85;1.40;;;;;;;4.08;100.00;99808.41;2578913;55;20123;-73
2021/11/12 07:30:14;;;;;;;2.92;1.77;;;;;;;4.11;100.00;99811.69;2578861;55;20110;-69
2021/11/12 07:32:43;;;;;;;2.20;1.10;;;;;;;4.13;100.00;99814.25;2578980;55;20123;-75
2021/11/12 07:35:13;;;;;;;3.83;1.50;;;;;;;4.13;100.00;99808.97;2578833;55;20116;-76
2021/11/12 07:37:42;;;;;;;3.08;1.67;;;;;;;4.14;100.00;99815.94;2578959;55;20276;-69
2021/11/12 07:40:19;;;;;;;2.72;1.35;;;;;;;4.18;100.00;99813.03;2578942;55;20180;-75
2021/11/12 07:42:56;;;;;;;2.42;1.15;;;;;;;4.18;100.00;99813.03;2579054;55;20640;-69
2021/11/12 07:45:36;;;;;;;3.12;1.20;;;;;;;4.19;100.00;99827.06;2578865;55;20172;-69
2021/11/12 07:48:05;;;;;;;4.10;1.23;;;;;;;4.21;100.00;99832.25;2578746;55;20503;-76
2021/11/12 07:50:35;;;;;;;3.50;1.30;;;;;;;4.20;100.00;99835.84;2578751;55;20671;-75
2021/11/12 07:53:04;;;;;;;5.85;1.58;;;;;;;4.22;100.00;99840.09;2578733;55;20105;-75
2021/11/12 07:55:32;;;;;;;3.80;1.67;;;;;;;4.22;100.00;99840.09;2578699;55;20136;-68
2021/11/12 07:57:59;;;;;;;2.20;1.33;;;;;;;4.26;100.00;99846.84;2578789;55;20121;-75
2021/11/12 08:00:27;;;;;;;2.30;1.00;;;;;;;4.22;100.00;99850.66;2578794;55;20127;-75
2021/11/12 08:02:55;;;;;;;2.67;1.12;;;;;;;4.20;100.00;99852.50;2578884;55;20161;-76
2021/11/12 08:05:26;;;;;;;2.22;1.00;;;;;;;4.18;100.00;99854.41;2578872;55;20134;-76
2021/11/12 08:07:59;;;;;;;1.77;0.60;;;;;;;4.24;100.00;99854.03;2578838;55;20135;-73
2021/11/12 08:10:32;;;;;;;1.70;0.90;;;;;;;4.23;100.00;99865.53;2578878;55;20116;-69
2021/11/12 08:13:03;;;;;;;2.35;1.42;;;;;;;4.22;100.00;99871.78;2573906;55;20622;-69
2021/11/12 08:15:38;;;;;;;3.20;1.52;;;;;;;4.24;100.00;99871.66;2578841;55;20684;-75
2021/11/12 08:18:20;;;;;;;2.40;1.42;;;;;;;4.16;100.00;99880.94;2579009;55;20458;-69
2021/11/12 08:20:55;;;;;;;1.35;0.80;;;;;;;4.20;100.00;99886.00;2578891;55;20148;-76
2021/11/12 08:23:27;;;;;;;2.87;2.00;;;;;;;4.19;100.00;99887.78;2578954;55;20102;-69
2021/11/12 08:26:07;;;;;;;3.25;1.27;;;;;;;4.24;100.00;99892.78;2573629;55;20547;-69
2021/11/12 08:29:07;;;;;;;1.65;1.33;;;;;;;4.18;100.00;99896.66;2578672;55;20113;-75
2021/11/12 08:31:41;;;;;;;2.47;0.75;;;;;;;4.23;100.00;99901.66;2578634;55;20611;-69
2021/11/12 08:34:12;;;;;;;1.10;0.80;;;;;;;4.23;100.00;99907.78;2578785;55;20109;-75
2021/11/12 08:39:40;;;;;;;1.33;1.00;;;;;;;4.22;100.00;99914.03;2578259;55;20146;-75
2021/11/12 08:42:12;;;;;;;1.85;1.23;;;;;;;4.23;100.00;99910.44;2578788;55;20113;-69
2021/11/12 08:44:43;;;;;;;3.67;1.27;;;;;;;4.29;100.00;99919.78;2578668;55;20117;-75
2021/11/12 08:47:13;;;;;;;4.40;1.98;;;;;;;4.34;100.00;99919.50;2578776;55;20642;-69
2021/11/12 08:49:43;;;;;;;4.03;1.73;;;;;;;4.40;100.00;99927.00;2578633;55;20127;-69
2021/11/12 08:52:14;;;;;;;2.60;0.88;;;;;;;4.47;100.00;99932.78;2573715;55;20673;-69
2021/11/12 08:54:44;;;;;;;1.55;0.80;;;;;;;4.58;100.00;99930.31;2578757;55;20123;-68
2021/11/12 08:57:16;;;;;;;1.65;1.00;;;;;;;4.52;100.00;99921.00;2578587;55;20142;-69
2021/11/12 08:59:45;;;;;;;1.23;0.77;;;;;;;4.62;100.00;99942.38;2578476;55;20523;-69
2021/11/12 09:02:19;;;;;;;1.58;0.80;;;;;;;4.59;100.00;99945.22;2578566;55;20744;-77
2021/11/12 09:04:47;;;;;;;1.95;1.37;;;;;;;4.57;100.00;99947.94;2573480;55;20166;-75
2021/11/12 09:07:17;;;;;;;1.67;0.98;;;;;;;4.58;100.00;99954.09;2578602;55;20112;-70
2021/11/12 09:09:47;;;;;;;2.33;1.05;;;;;;;4.62;100.00;99967.97;2578634;55;20121;-70
2021/11/12 09:12:17;;;;;;;4.68;0.85;;;;;;;4.65;100.00;99960.69;2578740;55;20122;-69
2021/11/12 09:14:47;;;;;;;4.18;0.95;;;;;;;4.59;100.00;99964.56;2578495;55;20102;-69
2021/11/12 09:17:16;;;;;;;2.05;0.98;;;;;;;4.65;100.00;99965.97;2573412;55;20132;-69
2021/11/12 09:19:49;;;;;;;1.55;0.90;;;;;;;4.67;100.00;99979.09;2578481;55;20113;-74
2021/11/12 09:22:19;;;;;;;0.73;0.57;;;;;;;4.65;100.00;99975.69;2578552;55;20619;-69
2021/11/12 09:24:48;;;;;;;1.35;0.60;;;;;;;4.74;100.00;99983.06;2578666;55;20114;-76
2021/11/12 09:27:18;;;;;;;3.12;0.85;;;;;;;4.78;100.00;99986.34;2578331;55;20113;-69
2021/11/12 09:29:47;;;;;;;1.05;0.80;;;;;;;4.78;100.00;99981.91;2578425;55;20109;-70
2021/11/12 09:32:15;;;;;;;0.90;0.60;;;;;;;4.72;100.00;99995.53;2578395;55;20122;-74
2021/11/12 09:34:43;;;;;;;1.37;0.80;;;;;;;4.67;100.00;99998.44;2578417;55;20127;-69
2021/11/12 09:37:19;;;;;;;2.85;0.70;;;;;;;4.67;100.00;100010.81;2578728;55;20101;-76
2021/11/12 09:39:53;;;;;;;2.15;0.70;;;;;;;4.64;100.00;100009.19;2578677;55;20097;-76
2021/11/12 09:42:24;;;;;;;1.20;0.80;;;;;;;4.64;100.00;100016.28;2578563;55;20619;-69
2021/11/12 09:44:52;;;;;;;1.20;0.60;;;;;;;4.63;100.00;100010.13;2578625;55;20161;-69
2021/11/12 09:47:24;;;;;;;2.28;0.68;;;;;;;4.66;100.00;100019.69;2578378;55;20109;-69
2021/11/12 09:49:53;;;;;;;1.77;0.70;;;;;;;4.65;100.00;100023.25;2578614;55;20110;-76
2021/11/12 09:52:21;;;;;;;2.35;0.60;;;;;;;4.54;100.00;99998.34;2578554;55;20122;-75
2021/11/12 09:54:51;;;;;;;2.03;1.10;;;;;;;4.67;100.00;100024.00;2578391;55;20135;-75
2021/11/12 09:57:19;;;;;;;3.75;1.73;;;;;;;4.65;100.00;100028.56;2578558;55;20501;-69
2021/11/12 09:59:50;;;;;;;2.45;0.50;;;;;;;4.71;100.00;100036.94;2578436;55;20401;-69
2021/11/12 10:02:18;;;;;;;2.55;0.68;;;;;;;4.66;100.00;100036.41;2578325;55;20149;-69
2021/11/12 10:04:47;;;;;;;1.33;0.80;;;;;;;4.69;100.00;100038.84;2573393;55;20125;-75
2021/11/12 10:07:17;;;;;;;3.50;1.92;;;;;;;4.67;100.00;100055.72;2578439;55;20607;-69
2021/11/12 10:09:48;;;;;;;2.65;0.85;;;;;;;4.65;100.00;100060.25;2578381;55;20535;-75
2021/11/12 10:12:16;;;;;;;1.95;0.60;;;;;;;4.68;100.00;100062.72;2578512;55;20198;-69
2021/11/12 10:14:50;;;;;;;2.05;0.70;;;;;;;4.67;100.00;100068.94;2573389;55;20129;-73
2021/11/12 10:17:21;;;;;;;2.08;0.62;;;;;;;4.69;100.00;100070.56;2578227;55;20481;-74
2021/11/12 10:19:53;;;;;;;1.02;0.80;;;;;;;4.59;100.00;100064.97;2578501;55;20132;-69
2021/11/12 10:22:25;;;;;;;2.90;0.98;;;;;;;4.67;100.00;100084.78;2573307;55;20135;-68
2021/11/12 10:24:53;;;;;;;0.68;0.60;;;;;;;4.68;100.00;100089.13;2578323;55;20636;-75
2021/11/12 10:27:25;;;;;;;2.20;0.80;;;;;;;4.64;100.00;100092.91;2578362;55;20128;-74
2021/11/12 10:29:54;;;;;;;3.37;1.33;;;;;;;4.66;100.00;100096.31;2578295;55;20630;-75
2021/11/12 10:32:25;;;;;;;0.95;0.50;;;;;;;4.60;100.00;100098.37;2578311;55;20495;-68
2021/11/12 10:34:56;;;;;;;2.45;0.70;;;;;;;4.66;100.00;100117.44;2578432;55;20129;-69
2021/11/12 10:37:28;;;;;;;6.07;2.67;;;;;;;4.64;100.00;100114.06;2578370;55;20511;-69
2021/11/12 10:40:01;;;;;;;0.30;0.30;;;;;;;4.72;100.00;100110.00;2573165;55;20113;-69
2021/11/12 10:42:33;;;;;;;2.12;0.50;;;;;;;4.66;100.00;100122.72;2578273;55;20163;-75
2021/11/12 10:45:07;;;;;;;2.55;0.60;;;;;;;4.63;100.00;100121.13;2578438;55;20515;-74
2021/11/12 10:47:45;;;;;;;1.95;0.57;;;;;;;4.57;100.00;100135.53;2578423;55;20125;-69
2021/11/12 10:50:14;;;;;;;2.33;0.60;;;;;;;4.55;100.00;100134.78;2578347;55;20125;-75
2021/11/12 10:52:42;;;;;;;1.55;0.70;;;;;;;4.55;100.00;100142.72;2578303;55;20117;-69
2021/11/12 10:55:12;;;;;;;1.27;0.35;;;;;;;4.58;100.00;100154.91;2578353;55;20122;-75
2021/11/12 10:57:42;;;;;;;1.58;0.70;;;;;;;4.53;100.00;100165.75;2578368;55;20150;-75
2021/11/12 11:00:14;;;;;;;0.68;0.50;;;;;;;4.55;100.00;100163.88;2578126;55;20127;-75
2021/11/12 11:02:46;;;;;;;0.77;0.55;;;;;;;4.55;100.00;100163.00;2578363;55;20109;-73
2021/11/12 11:05:17;;;;;;;1.25;0.68;;;;;;;4.55;100.00;100169.16;2578277;55;20189;-72
2021/11/12 11:07:47;;;;;;;0.82;0.50;;;;;;;4.58;100.00;100171.59;2578303;55;20561;-75
2021/11/12 11:10:28;;;;;;;2.50;0.80;;;;;;;4.57;100.00;100177.81;2578236;55;20170;-75
2021/11/12 11:13:00;;;;;;;1.95;0.62;;;;;;;4.53;100.00;100176.31;2578386;55;20122;-68
2021/11/12 11:15:34;;;;;;;2.50;0.50;;;;;;;4.53;100.00;100180.75;2577944;55;20142;-74
2021/11/12 11:18:18;;;;;;;4.68;1.17;;;;;;;4.51;100.00;100188.78;2578297;55;20101;-68
2021/11/12 11:20:49;;;;;;;2.50;0.60;;;;;;;4.41;100.00;100183.16;2578119;55;20106;-72
2021/11/12 11:23:17;;;;;;;7.15;3.37;;;;;;;4.44;100.00;100197.97;2578324;55;20126;-68
2021/11/12 11:25:57;;;;;;;1.15;0.60;;;;;;;4.43;100.00;100189.19;2578892;55;20149;-68
2021/11/12 11:28:25;;;;;;;2.25;0.85;;;;;;;4.48;100.00;100199.50;2573836;55;20125;-75
2021/11/12 11:30:53;;;;;;;4.32;0.80;;;;;;;4.48;100.00;100207.41;2578874;55;20118;-75
2021/11/12 11:33:23;;;;;;;4.20;2.33;;;;;;;4.47;100.00;100203.09;2578915;55;20612;-69
2021/11/12 11:35:55;;;;;;;2.97;1.48;;;;;;;4.44;100.00;100213.84;2578873;55;20131;-75
2021/11/12 11:38:28;;;;;;;2.70;0.77;;;;;;;4.54;100.00;100214.13;2579279;55;20105;-75
2021/11/12 11:40:56;;;;;;;1.67;0.70;;;;;;;4.50;100.00;100208.19;2578854;55;20169;-74
2021/11/12 11:43:24;;;;;;;3.47;0.82;;;;;;;4.45;100.00;100226.09;2578956;55;20101;-75
2021/11/12 11:45:55;;;;;;;1.60;0.62;;;;;;;4.42;100.00;100223.66;2578834;55;20109;-75
2021/11/12 11:48:25;;;;;;;2.15;0.75;;;;;;;4.43;100.00;100228.81;2578992;55;20153;-68
2021/11/12 11:50:55;;;;;;;3.20;1.52;;;;;;;4.34;100.00;100218.78;2578862;55;20126;-69
2021/11/12 11:53:29;;;;;;;5.55;2.00;;;;;;;4.36;100.00;100222.22;2578787;55;20145;-75
2021/11/12 11:56:15;;;;;;;2.55;0.70;;;;;;;4.39;100.00;100218.50;2578841;55;20113;-74
2021/11/12 11:58:44;;;;;;;2.33;0.80;;;;;;;4.32;100.00;100232.09;2579012;55;20531;-75
2021/11/12 12:01:40;;;;;;;2.53;0.70;;;;;;;4.32;100.00;100240.03;2578685;55;20124;-75
2021/11/12 12:04:35;;;;;;;3.92;1.58;;;;;;;4.22;100.00;100232.69;2578730;55;20167;-74
2021/11/12 12:07:31;;;;;;;6.93;2.90;;;;;;;4.25;100.00;100240.44;2578971;55;20127;-74
2021/11/12 12:10:16;;;;;;;7.43;3.20;;;;;;;4.20;100.00;100235.41;2578832;55;20116;-69
2021/11/12 12:13:05;;;;;;;0.60;0.50;;;;;;;4.17;100.00;100244.37;2573765;55;20539;-74
2021/11/12 12:15:38;;;;;;;2.85;1.25;;;;;;;4.14;100.00;100254.25;2578900;55;20113;-74
2021/11/12 12:18:28;;;;;;;2.45;1.30;;;;;;;4.14;100.00;100256.88;2579116;55;20109;-74
2021/11/12 12:22:03;;;;;;;1.50;0.80;;;;;;;4.13;100.00;100263.09;2578828;55;20157;-69
2021/11/12 13:22:04;;;;;;;11.40;1.35;;;;;;;3.70;100.00;100385.87;2573677;55;20109;-69
2021/11/12 13:24:36;;;;;;;1.05;0.90;;;;;;;3.69;100.00;100400.00;2578721;55;20161;-68
2021/11/12 13:27:08;;;;;;;1.10;0.77;;;;;;;3.66;100.00;100397.53;2578562;55;20206;-74
2021/11/12 13:29:40;;;;;;;2.00;1.20;;;;;;;3.62;100.00;100398.62;2578579;55;20112;-69
2021/11/12 13:32:08;;;;;;;3.78;1.50;;;;;;;3.60;100.00;100403.13;2578709;55;20528;-68
2021/11/12 13:34:44;;;;;;;4.37;1.65;;;;;;;3.60;100.00;100408.38;2578363;55;20125;-69
2021/11/12 13:37:17;;;;;;;1.42;0.90;;;;;;;3.63;100.00;100413.53;2573558;55;20123;-75
2021/11/12 13:39:46;;;;;;;1.20;1.05;;;;;;;3.60;100.00;100413.66;2578604;55;20127;-69
2021/11/12 13:42:16;;;;;;;4.12;2.05;;;;;;;3.60;100.00;100424.22;2573398;55;20496;-75
2021/11/12 13:44:44;;;;;;;8.65;2.75;;;;;;;3.60;100.00;100430.37;2578425;55;20507;-74
2021/11/12 13:47:12;;;;;;;4.07;1.73;;;;;;;3.58;100.00;100428.72;2578421;55;20102;-68
2021/11/12 13:49:42;;;;;;;6.07;1.52;;;;;;;3.53;100.00;100433.41;2578456;55;20639;-75
2021/11/12 13:52:12;;;;;;;2.47;1.33;;;;;;;3.57;100.00;100449.00;2578434;55;20113;-75
2021/11/12 13:54:43;;;;;;;2.70;1.40;;;;;;;3.60;100.00;100450.59;2578396;55;20110;-69
2021/11/12 13:57:14;;;;;;;4.25;2.45;;;;;;;3.60;100.00;100454.09;2578457;55;20109;-75
2021/11/12 13:59:54;;;;;;;2.12;1.87;;;;;;;3.64;100.00;100461.88;2578615;55;20133;-70
2021/11/12 14:02:23;;;;;;;3.30;2.15;;;;;;;3.67;100.00;100462.56;2578729;55;20128;-75
2021/11/12 14:04:51;;;;;;;1.50;1.40;;;;;;;3.58;100.00;100463.03;2578381;55;20123;-75
2021/11/12 14:07:20;;;;;;;3.20;1.30;;;;;;;3.63;100.00;100461.03;2578466;55;20110;-69
2021/11/12 14:10:01;;;;;;;4.70;1.50;;;;;;;3.71;100.00;100474.69;2578259;55;20677;-74
2021/11/12 14:12:31;;;;;;;3.28;1.27;;;;;;;3.70;100.00;100483.50;2578464;55;20123;-69
2021/11/12 14:15:14;;;;;;;5.90;1.30;;;;;;;3.74;100.00;100490.34;2573263;55;20630;-68
2021/11/12 14:17:54;;;;;;;4.28;1.20;;;;;;;3.68;100.00;100485.38;2578614;55;20110;-68
2021/11/12 14:20:26;;;;;;;3.22;1.37;;;;;;;3.66;100.00;100489.88;2578401;55;20105;-72
2021/11/12 14:23:04;;;;;;;4.97;1.23;;;;;;;3.80;100.00;100501.53;2578513;55;20746;-76
2021/11/12 14:25:44;;;;;;;1.52;1.20;;;;;;;3.72;100.00;100509.84;2578302;55;20130;-74
2021/11/12 14:28:21;;;;;;;3.08;1.00;;;;;;;3.68;100.00;100516.22;2578489;55;20098;-75
2021/11/12 14:31:10;;;;;;;3.22;1.20;;;;;;;3.66;100.00;100518.91;2578282;55;20129;-73
2021/11/12 14:36:30;;;;;;;5.93;1.37;;;;;;;3.63;100.00;100519.06;2577906;55;20136;-68
2021/11/12 14:39:19;;;;;;;3.62;1.30;;;;;;;3.75;100.00;100531.66;2578387;55;20128;-69
2021/11/12 14:42:08;;;;;;;5.55;2.60;;;;;;;3.69;100.00;100533.75;2578299;55;20134;-69
2021/11/12 14:44:55;;;;;;;6.12;1.90;;;;;;;3.72;100.00;100538.87;2578313;55;20176;-75
2021/11/12 14:47:36;;;;;;;3.17;1.12;;;;;;;3.65;100.00;100533.03;2578336;55;20121;-68
2021/11/12 14:50:23;;;;;;;2.62;2.10;;;;;;;3.69;100.00;100531.94;2573142;55;20128;-75
2021/11/12 14:53:25;;;;;;;7.00;2.80;;;;;;;3.70;100.00;100540.72;2578502;55;20121;-76
2021/11/12 14:55:59;;;;;;;3.58;2.33;;;;;;;3.66;100.00;100555.84;2573273;55;20639;-75
2021/11/12 14:58:27;;;;;;;1.85;1.40;;;;;;;3.66;100.00;100558.50;2578490;55;20105;-75
2021/11/12 15:01:03;;;;;;;1.87;1.30;;;;;;;3.62;100.00;100570.97;2578961;55;20173;-68
2021/11/12 15:03:33;;;;;;;4.45;1.00;;;;;;;3.66;100.00;100563.78;2578950;55;20146;-75
2021/11/12 15:06:02;;;;;;;2.35;1.40;;;;;;;3.56;100.00;100568.66;2578825;55;20113;-70
2021/11/12 15:08:30;;;;;;;2.00;1.37;;;;;;;3.54;100.00;100582.84;2573785;55;20118;-68
2021/11/12 15:11:00;;;;;;;4.28;1.50;;;;;;;3.54;100.00;100582.84;2578794;55;20674;-69
2021/11/12 15:13:31;;;;;;;2.92;1.83;;;;;;;3.55;100.00;100589.81;2573979;55;20122;-75
2021/11/12 15:16:03;;;;;;;3.58;1.40;;;;;;;3.57;100.00;100598.50;2578903;55;20118;-68